Time;durP1;ratioP1;P1;durP2;ratioP2;P2;SDS_P1;SDS_P2;PMS_P1;PMS_P2;Temp;Humidity;BMP_temperature;BMP_pressure;BME280_temperature;BME280_humidity;BME280_pressure;Samples;Min_cycle;Max_cycle;Signal;HPM_P1;HPM_P2
2022/11/29 00:02:04;;;;;;;;;;;;;;;;;;7367942;19;843;-70
2022/11/29 00:04:33;;;;;;;;;;;;;;;;;;7366655;19;1303;-70
2022/11/29 00:07:01;;;;;;;;;;;;;;;;;;7372904;19;886;-70
2022/11/29 00:09:29;;;;;;;;;;;;;;;;;;7380510;19;1937;-69
2022/11/29 00:14:38;;;;;;;;;;;;;;;;;;7378806;19;1861;-70
2022/11/29 00:17:06;;;;;;;;;;;;;;;;;;7372965;19;812;-70
2022/11/29 00:19:35;;;;;;;;;;;;;;;;;;7376812;19;1289;-71
2022/11/29 00:22:03;;;;;;;;;;;;;;;;;;7372329;19;815;-71
2022/11/29 00:24:33;;;;;;;;;;;;;;;;;;7370655;19;1337;-71
2022/11/29 00:27:01;;;;;;;;;;;;;;;;;;7372991;19;683;-72
2022/11/29 00:29:29;;;;;;;;;;;;;;;;;;7376453;19;1472;-71
2022/11/29 00:31:57;;;;;;;;;;;;;;;;;;7374736;19;1102;-71
2022/11/29 00:34:26;;;;;;;;;;;;;;;;;;7371147;19;1848;-70
2022/11/29 00:36:54;;;;;;;;;;;;;;;;;;7371817;19;715;-70
2022/11/29 00:39:22;;;;;;;;;;;;;;;;;;7373481;19;1681;-70
2022/11/29 00:41:50;;;;;;;;;;;;;;;;;;7371065;19;842;-70
2022/11/29 00:44:18;;;;;;;;;;;;;;;;;;7370836;19;1298;-70
2022/11/29 00:46:46;;;;;;;;;;;;;;;;;;7371291;19;831;-69
2022/11/29 00:49:14;;;;;;;;;;;;;;;;;;7375071;19;1876;-70
2022/11/29 00:51:42;;;;;;;;;;;;;;;;;;7371962;19;866;-70
2022/11/29 00:54:11;;;;;;;;;;;;;;;;;;7370562;19;1884;-70
2022/11/29 00:56:39;;;;;;;;;;;;;;;;;;7371356;19;795;-70
2022/11/29 00:59:07;;;;;;;;;;;;;;;;;;7374580;19;1920;-70
2022/11/29 01:01:35;;;;;;;;;;;;;;;;;;7372108;19;870;-69
2022/11/29 01:04:03;;;;;;;;;;;;;;;;;;7372554;19;1388;-69
2022/11/29 01:06:31;;;;;;;;;;;;;;;;;;7369852;19;819;-70
2022/11/29 01:09:00;;;;;;;;;;;;;;;;;;7370279;19;1718;-69
2022/11/29 01:11:28;;;;;;;;;;;;;;;;;;7369639;19;881;-69
2022/11/29 01:13:56;;;;;;;;;;;;;;;;;;7367927;19;1863;-69
2022/11/29 01:16:24;;;;;;;;;;;;;;;;;;7370454;19;810;-68
2022/11/29 01:18:52;;;;;;;;;;;;;;;;;;7372128;19;1643;-71
2022/11/29 01:21:20;;;;;;;;;;;;;;;;;;7368608;19;908;-70
2022/11/29 01:23:49;;;;;;;;;;;;;;;;;;7370016;19;1326;-71
2022/11/29 01:26:17;;;;;;;;;;;;;;;;;;7370607;19;871;-69
2022/11/29 01:28:45;;;;;;;;;;;;;;;;;;7372586;19;1590;-69
2022/11/29 01:31:13;;;;;;;;;;;;;;;;;;7369659;19;851;-68
2022/11/29 01:33:41;;;;;;;;;;;;;;;;;;7369293;19;1846;-69
2022/11/29 01:36:09;;;;;;;;;;;;;;;;;;7369445;19;825;-68
2022/11/29 01:38:38;;;;;;;;;;;;;;;;;;7370883;19;1838;-68
2022/11/29 01:41:06;;;;;;;;;;;;;;;;;;7370135;19;883;-69
2022/11/29 01:43:34;;;;;;;;;;;;;;;;;;7373729;19;1846;-69
2022/11/29 01:46:02;;;;;;;;;;;;;;;;;;7369704;19;861;-70
2022/11/29 01:48:30;;;;;;;;;;;;;;;;;;7372306;19;2107;-71
2022/11/29 01:50:59;;;;;;;;;;;;;;;;;;7371897;19;1640;-70
2022/11/29 01:53:27;;;;;;;;;;;;;;;;;;7370865;19;1857;-69
2022/11/29 01:55:55;;;;;;;;;;;;;;;;;;7369122;19;835;-69
2022/11/29 01:58:23;;;;;;;;;;;;;;;;;;7370846;19;1640;-68
2022/11/29 02:00:51;;;;;;;;;;;;;;;;;;7370158;19;867;-70
2022/11/29 02:03:20;;;;;;;;;;;;;;;;;;7369706;19;1279;-71
2022/11/29 02:05:48;;;;;;;;;;;;;;;;;;7369668;19;872;-70
2022/11/29 02:08:16;;;;;;;;;;;;;;;;;;7369814;19;1745;-70
2022/11/29 02:10:44;;;;;;;;;;;;;;;;;;7369091;19;823;-70
2022/11/29 02:13:12;;;;;;;;;;;;;;;;;;7369071;19;1838;-69
2022/11/29 02:15:40;;;;;;;;;;;;;;;;;;7367222;19;1904;-71
2022/11/29 02:18:08;;;;;;;;;;;;;;;;;;7370564;19;1840;-70
2022/11/29 02:20:37;;;;;;;;;;;;;;;;;;7369538;19;808;-69
2022/11/29 02:23:05;;;;;;;;;;;;;;;;;;7369454;19;803;-68
2022/11/29 02:25:33;;;;;;;;;;;;;;;;;;7365876;19;1345;-70
2022/11/29 02:28:01;;;;;;;;;;;;;;;;;;7368797;19;1541;-69
2022/11/29 02:30:29;;;;;;;;;;;;;;;;;;7369124;19;1893;-68
2022/11/29 02:32:57;;;;;;;;;;;;;;;;;;7368473;19;792;-68
2022/11/29 02:35:26;;;;;;;;;;;;;;;;;;7365297;19;1322;-68
2022/11/29 02:37:54;;;;;;;;;;;;;;;;;;7368685;19;1642;-69
2022/11/29 02:40:22;;;;;;;;;;;;;;;;;;7369300;19;807;-69
2022/11/29 02:42:50;;;;;;;;;;;;;;;;;;7367865;19;854;-69
2022/11/29 02:45:18;;;;;;;;;;;;;;;;;;7366839;19;1232;-68
2022/11/29 02:47:46;;;;;;;;;;;;;;;;;;7368115;19;1601;-70
2022/11/29 02:50:14;;;;;;;;;;;;;;;;;;7368170;19;811;-69
2022/11/29 02:52:43;;;;;;;;;;;;;;;;;;7368215;19;832;-69
2022/11/29 02:55:11;;;;;;;;;;;;;;;;;;7365027;19;1824;-70
2022/11/29 02:57:39;;;;;;;;;;;;;;;;;;7367411;19;1921;-70
2022/11/29 03:00:07;;;;;;;;;;;;;;;;;;7368589;19;815;-70
2022/11/29 03:02:35;;;;;;;;;;;;;;;;;;7368437;19;882;-70
2022/11/29 03:05:03;;;;;;;;;;;;;;;;;;7365805;19;1286;-72
2022/11/29 03:07:31;;;;;;;;;;;;;;;;;;7367488;19;1559;-74
2022/11/29 03:09:59;;;;;;;;;;;;;;;;;;7368413;19;1592;-71
2022/11/29 03:12:28;;;;;;;;;;;;;;;;;;7368883;19;1910;-70
2022/11/29 03:14:56;;;;;;;;;;;;;;;;;;7365184;19;1853;-70
2022/11/29 03:17:24;;;;;;;;;;;;;;;;;;7366587;19;828;-70
2022/11/29 03:19:52;;;;;;;;;;;;;;;;;;7370685;19;1490;-70
2022/11/29 03:22:20;;;;;;;;;;;;;;;;;;7367867;19;746;-69
2022/11/29 03:24:48;;;;;;;;;;;;;;;;;;7363931;19;1294;-69
2022/11/29 03:27:16;;;;;;;;;;;;;;;;;;7367765;19;820;-70
2022/11/29 03:29:45;;;;;;;;;;;;;;;;;;7369162;19;1854;-70
2022/11/29 03:32:13;;;;;;;;;;;;;;;;;;7367317;19;836;-69
2022/11/29 03:34:41;;;;;;;;;;;;;;;;;;7366286;19;1849;-70
2022/11/29 03:37:09;;;;;;;;;;;;;;;;;;7368392;19;863;-69
2022/11/29 03:39:37;;;;;;;;;;;;;;;;;;7367563;19;792;-69
2022/11/29 03:42:05;;;;;;;;;;;;;;;;;;7370796;19;783;-69
2022/11/29 03:44:33;;;;;;;;;;;;;;;;;;7364538;19;1287;-69
2022/11/29 03:47:01;;;;;;;;;;;;;;;;;;7370609;19;733;-69
2022/11/29 03:49:30;;;;;;;;;;;;;;;;;;7371973;19;1966;-68
2022/11/29 03:51:58;;;;;;;;;;;;;;;;;;7368740;19;819;-69
2022/11/29 03:54:26;;;;;;;;;;;;;;;;;;7364702;19;1845;-69
2022/11/29 03:56:54;;;;;;;;;;;;;;;;;;7367962;19;826;-70
2022/11/29 03:59:22;;;;;;;;;;;;;;;;;;7369143;19;1852;-69
2022/11/29 04:01:50;;;;;;;;;;;;;;;;;;7372098;19;1905;-70
2022/11/29 04:04:18;;;;;;;;;;;;;;;;;;7364584;19;1323;-69
2022/11/29 04:06:47;;;;;;;;;;;;;;;;;;7366516;19;859;-68
2022/11/29 04:09:15;;;;;;;;;;;;;;;;;;7367095;19;1690;-68
2022/11/29 04:11:53;;;;;;;;;;;;;;;;;;7366070;19;1942;-67
2022/11/29 04:14:21;;;;;;;;;;;;;;;;;;7364781;19;1848;-71
2022/11/29 04:16:49;;;;;;;;;;;;;;;;;;7365846;19;855;-69
2022/11/29 04:19:18;;;;;;;;;;;;;;;;;;7363906;19;878;-68
2022/11/29 04:21:46;;;;;;;;;;;;;;;;;;7366041;19;823;-69
2022/11/29 04:24:14;;;;;;;;;;;;;;;;;;7369541;19;1802;-68
2022/11/29 04:26:42;;;;;;;;;;;;;;;;;;7364309;19;769;-67
2022/11/29 04:29:10;;;;;;;;;;;;;;;;;;7363691;19;792;-71
2022/11/29 04:31:38;;;;;;;;;;;;;;;;;;7365662;19;871;-69
2022/11/29 04:34:06;;;;;;;;;;;;;;;;;;7368185;19;1861;-68
2022/11/29 04:36:35;;;;;;;;;;;;;;;;;;7365081;19;797;-70
2022/11/29 04:39:03;;;;;;;;;;;;;;;;;;7364838;19;826;-69
2022/11/29 04:41:31;;;;;;;;;;;;;;;;;;7364641;19;758;-69
2022/11/29 04:43:59;;;;;;;;;;;;;;;;;;7366036;19;2098;-70
2022/11/29 04:46:27;;;;;;;;;;;;;;;;;;7365552;19;819;-68
2022/11/29 04:48:55;;;;;;;;;;;;;;;;;;7364455;19;813;-66
2022/11/29 04:51:23;;;;;;;;;;;;;;;;;;7364129;19;917;-67
2022/11/29 04:53:52;;;;;;;;;;;;;;;;;;7367716;19;1861;-67
2022/11/29 04:56:20;;;;;;;;;;;;;;;;;;7370104;19;823;-67
2022/11/29 04:58:48;;;;;;;;;;;;;;;;;;7371050;19;890;-69
2022/11/29 05:01:16;;;;;;;;;;;;;;;;;;7371370;19;872;-69
2022/11/29 05:03:44;;;;;;;;;;;;;;;;;;7373120;19;2119;-69
2022/11/29 05:06:12;;;;;;;;;;;;;;;;;;7371746;19;721;-70
2022/11/29 05:08:41;;;;;;;;;;;;;;;;;;7369732;19;875;-70
2022/11/29 05:11:09;;;;;;;;;;;;;;;;;;7370728;19;860;-69
2022/11/29 05:13:37;;;;;;;;;;;;;;;;;;7373927;19;1716;-71
2022/11/29 05:16:05;;;;;;;;;;;;;;;;;;7369299;19;1848;-72
2022/11/29 05:18:33;;;;;;;;;;;;;;;;;;7369608;19;870;-70
2022/11/29 05:21:01;;;;;;;;;;;;;;;;;;7369954;19;850;-71
2022/11/29 05:23:29;;;;;;;;;;;;;;;;;;7373302;19;1581;-70
2022/11/29 05:25:58;;;;;;;;;;;;;;;;;;7370131;19;835;-71
2022/11/29 05:28:26;;;;;;;;;;;;;;;;;;7369831;19;801;-69
2022/11/29 05:30:54;;;;;;;;;;;;;;;;;;7369853;19;875;-70
2022/11/29 05:33:22;;;;;;;;;;;;;;;;;;7372336;19;1614;-70
2022/11/29 05:35:50;;;;;;;;;;;;;;;;;;7368506;19;1853;-68
2022/11/29 05:38:18;;;;;;;;;;;;;;;;;;7369982;19;895;-71
2022/11/29 05:40:46;;;;;;;;;;;;;;;;;;7370256;19;819;-68
2022/11/29 05:43:15;;;;;;;;;;;;;;;;;;7371898;19;1827;-67
2022/11/29 05:45:43;;;;;;;;;;;;;;;;;;7366511;19;1291;-69
2022/11/29 05:48:11;;;;;;;;;;;;;;;;;;7370292;19;871;-70
2022/11/29 05:50:39;;;;;;;;;;;;;;;;;;7370326;19;832;-70
2022/11/29 05:53:08;;;;;;;;;;;;;;;;;;7372683;19;1811;-69
2022/11/29 05:55:36;;;;;;;;;;;;;;;;;;7367254;19;1858;-70
2022/11/29 05:58:04;;;;;;;;;;;;;;;;;;7369673;19;779;-72
2022/11/29 06:00:32;;;;;;;;;;;;;;;;;;7369448;19;799;-71
2022/11/29 06:03:02;;;;;;;;;;;;;;;;;;7372785;19;1888;-70
2022/11/29 06:05:30;;;;;;;;;;;;;;;;;;7367746;19;1246;-68
2022/11/29 06:07:58;;;;;;;;;;;;;;;;;;7368444;19;904;-67
2022/11/29 06:10:26;;;;;;;;;;;;;;;;;;7369756;19;835;-68
2022/11/29 06:12:54;;;;;;;;;;;;;;;;;;7371823;19;1868;-67
2022/11/29 06:15:22;;;;;;;;;;;;;;;;;;7367362;19;1873;-71
2022/11/29 06:17:51;;;;;;;;;;;;;;;;;;7368659;19;879;-72
2022/11/29 06:20:19;;;;;;;;;;;;;;;;;;7368784;19;807;-70
2022/11/29 06:22:49;;;;;;;;;;;;;;;;;;7371448;19;1929;-69
2022/11/29 06:25:17;;;;;;;;;;;;;;;;;;7366632;19;1310;-70
2022/11/29 06:27:46;;;;;;;;;;;;;;;;;;7367808;19;803;-69
2022/11/29 06:30:15;;;;;;;;;;;;;;;;;;7369198;19;867;-69
2022/11/29 06:32:43;;;;;;;;;;;;;;;;;;7372340;19;1506;-70
2022/11/29 06:35:11;;;;;;;;;;;;;;;;;;7367473;19;1846;-69
2022/11/29 06:37:39;;;;;;;;;;;;;;;;;;7370903;19;1924;-70
2022/11/29 06:40:07;;;;;;;;;;;;;;;;;;7369357;19;853;-71
2022/11/29 06:42:35;;;;;;;;;;;;;;;;;;7371943;19;1645;-72
2022/11/29 06:45:03;;;;;;;;;;;;;;;;;;7366021;19;1303;-71
2022/11/29 06:47:32;;;;;;;;;;;;;;;;;;7369335;19;807;-73
2022/11/29 06:50:00;;;;;;;;;;;;;;;;;;7368793;19;835;-71
2022/11/29 06:52:28;;;;;;;;;;;;;;;;;;7370667;19;2131;-70
2022/11/29 06:54:56;;;;;;;;;;;;;;;;;;7367069;19;1861;-70
2022/11/29 06:57:24;;;;;;;;;;;;;;;;;;7368916;19;791;-70
2022/11/29 06:59:53;;;;;;;;;;;;;;;;;;7368561;19;895;-71
2022/11/29 07:02:21;;;;;;;;;;;;;;;;;;7371613;19;1850;-71
2022/11/29 07:04:49;;;;;;;;;;;;;;;;;;7368420;19;1341;-71
2022/11/29 07:07:17;;;;;;;;;;;;;;;;;;7371698;19;840;-71
2022/11/29 07:09:45;;;;;;;;;;;;;;;;;;7370153;19;836;-71
2022/11/29 07:12:13;;;;;;;;;;;;;;;;;;7371786;19;1869;-70
2022/11/29 07:14:42;;;;;;;;;;;;;;;;;;7368371;19;1860;-70
2022/11/29 07:17:10;;;;;;;;;;;;;;;;;;7370976;19;846;-71
2022/11/29 07:19:38;;;;;;;;;;;;;;;;;;7366709;19;816;-70
2022/11/29 07:22:06;;;;;;;;;;;;;;;;;;7370953;19;1845;-71
2022/11/29 07:24:34;;;;;;;;;;;;;;;;;;7367710;19;1342;-71
2022/11/29 07:27:02;;;;;;;;;;;;;;;;;;7370352;19;815;-70
2022/11/29 07:29:31;;;;;;;;;;;;;;;;;;7368972;19;792;-72
2022/11/29 07:31:59;;;;;;;;;;;;;;;;;;7374245;19;1948;-71
2022/11/29 07:34:27;;;;;;;;;;;;;;;;;;7367793;19;1330;-71
2022/11/29 07:36:55;;;;;;;;;;;;;;;;;;7366051;19;1819;-71
2022/11/29 07:39:23;;;;;;;;;;;;;;;;;;7368625;19;867;-71
2022/11/29 07:41:51;;;;;;;;;;;;;;;;;;7368281;19;1914;-72
2022/11/29 07:44:20;;;;;;;;;;;;;;;;;;7366284;19;1366;-73
2022/11/29 07:46:48;;;;;;;;;;;;;;;;;;7366350;19;849;-72
2022/11/29 07:49:16;;;;;;;;;;;;;;;;;;7367624;19;767;-72
2022/11/29 07:51:44;;;;;;;;;;;;;;;;;;7372703;19;1941;-72
2022/11/29 07:54:12;;;;;;;;;;;;;;;;;;7366139;19;1295;-72
2022/11/29 07:56:41;;;;;;;;;;;;;;;;;;7364481;19;1855;-72
2022/11/29 07:59:11;;;;;;;;;;;;;;;;;;7367058;19;863;-72
2022/11/29 08:01:40;;;;;;;;;;;;;;;;;;7368572;19;751;-72
2022/11/29 08:04:08;;;;;;;;;;;;;;;;;;7367850;19;1262;-72
2022/11/29 08:06:36;;;;;;;;;;;;;;;;;;7368428;19;650;-70
2022/11/29 08:09:05;;;;;;;;;;;;;;;;;;7365613;19;804;-70
2022/11/29 08:11:33;;;;;;;;;;;;;;;;;;7367206;19;1816;-71
2022/11/29 08:14:01;;;;;;;;;;;;;;;;;;7371173;19;1260;-73
2022/11/29 08:16:30;;;;;;;;;;;;;;;;;;7364836;19;1860;-70
2022/11/29 08:18:58;;;;;;;;;;;;;;;;;;7367487;19;815;-72
2022/11/29 08:21:26;;;;;;;;;;;;;;;;;;7367099;19;890;-70
2022/11/29 08:23:54;;;;;;;;;;;;;;;;;;7366259;19;1338;-72
2022/11/29 08:26:22;;;;;;;;;;;;;;;;;;7368372;19;794;-71
2022/11/29 08:28:50;;;;;;;;;;;;;;;;;;7367227;19;811;-71
2022/11/29 08:31:19;;;;;;;;;;;;;;;;;;7373682;19;795;-70
2022/11/29 08:33:47;;;;;;;;;;;;;;;;;;7374173;19;1278;-71
2022/11/29 08:36:15;;;;;;;;;;;;;;;;;;7372745;19;1837;-71
2022/11/29 08:38:43;;;;;;;;;;;;;;;;;;7375049;19;833;-71
2022/11/29 08:41:11;;;;;;;;;;;;;;;;;;7374440;19;838;-71
2022/11/29 08:43:39;;;;;;;;;;;;;;;;;;7378497;19;1512;-71
2022/11/29 08:46:08;;;;;;;;;;;;;;;;;;7374340;19;801;-71
2022/11/29 08:48:36;;;;;;;;;;;;;;;;;;7375072;19;789;-71
2022/11/29 08:51:04;;;;;;;;;;;;;;;;;;7374560;19;759;-71
2022/11/29 08:53:43;;;;;;;;;;;;;;;;;;7373372;19;1339;-71
2022/11/29 08:56:11;;;;;;;;;;;;;;;;;;7373094;19;1860;-71
2022/11/29 08:58:39;;;;;;;;;;;;;;;;;;7373138;19;833;-73
2022/11/29 09:01:07;;;;;;;;;;;;;;;;;;7371741;19;879;-72
2022/11/29 09:06:16;;;;;;;;;;;;;;;;;;7373070;19;844;-72
2022/11/29 09:08:44;;;;;;;;;;;;;;;;;;7376864;19;740;-71
2022/11/29 09:11:14;;;;;;;;;;;;;;;;;;7381262;19;768;-71
2022/11/29 09:13:42;;;;;;;;;;;;;;;;;;7384797;19;1662;-71
2022/11/29 09:16:10;;;;;;;;;;;;;;;;;;7379372;19;1861;-71
2022/11/29 09:18:38;;;;;;;;;;;;;;;;;;7377980;19;828;-71
2022/11/29 09:21:06;;;;;;;;;;;;;;;;;;7372148;19;810;-70
2022/11/29 09:23:34;;;;;;;;;;;;;;;;;;7377203;19;1808;-70
2022/11/29 09:26:02;;;;;;;;;;;;;;;;;;7372607;19;792;-71
2022/11/29 09:28:32;;;;;;;;;;;;;;;;;;7372767;19;592;-72
2022/11/29 09:31:00;;;;;;;;;;;;;;;;;;7374050;19;796;-70
2022/11/29 09:33:28;;;;;;;;;;;;;;;;;;7372137;19;1326;-71
2022/11/29 09:35:56;;;;;;;;;;;;;;;;;;7373400;19;1845;-70
2022/11/29 09:38:24;;;;;;;;;;;;;;;;;;7375306;19;835;-73
2022/11/29 09:40:52;;;;;;;;;;;;;;;;;;7371377;19;1192;-70
2022/11/29 09:43:21;;;;;;;;;;;;;;;;;;7368944;19;862;-70
2022/11/29 09:45:49;;;;;;;;;;;;;;;;;;7372175;19;863;-72
2022/11/29 09:48:17;;;;;;;;;;;;;;;;;;7372593;19;796;-71
2022/11/29 09:50:45;;;;;;;;;;;;;;;;;;7375434;19;822;-70
2022/11/29 09:53:13;;;;;;;;;;;;;;;;;;7376882;19;1677;-72
2022/11/29 09:55:42;;;;;;;;;;;;;;;;;;7371930;19;1849;-71
2022/11/29 09:58:10;;;;;;;;;;;;;;;;;;7374063;19;859;-71
2022/11/29 10:00:38;;;;;;;;;;;;;;;;;;7371276;19;898;-71
2022/11/29 10:03:06;;;;;;;;;;;;;;;;;;7373686;19;1635;-71
2022/11/29 10:05:34;;;;;;;;;;;;;;;;;;7368311;19;1335;-70
2022/11/29 10:08:03;;;;;;;;;;;;;;;;;;7370868;19;792;-70
2022/11/29 10:10:31;;;;;;;;;;;;;;;;;;7370583;19;896;-71
2022/11/29 10:12:59;;;;;;;;;;;;;;;;;;7370007;19;783;-71
2022/11/29 10:15:27;;;;;;;;;;;;;;;;;;7367804;19;1849;-70
2022/11/29 10:17:55;;;;;;;;;;;;;;;;;;7371719;19;792;-70
2022/11/29 10:20:23;;;;;;;;;;;;;;;;;;7370188;19;854;-71
2022/11/29 10:22:53;;;;;;;;;;;;;;;;;;7373465;19;862;-69
2022/11/29 10:25:21;;;;;;;;;;;;;;;;;;7375410;19;1283;-69
2022/11/29 10:27:49;;;;;;;;;;;;;;;;;;7375213;19;1175;-69
2022/11/29 10:30:17;;;;;;;;;;;;;;;;;;7378612;19;847;-69
2022/11/29 10:32:45;;;;;;;;;;;;;;;;;;7378883;19;1902;-70
2022/11/29 10:35:14;;;;;;;;;;;;;;;;;;7376677;19;1271;-70
2022/11/29 10:37:42;;;;;;;;;;;;;;;;;;7367893;19;1855;-70
2022/11/29 10:40:10;;;;;;;;;;;;;;;;;;7372508;19;859;-71
2022/11/29 10:42:52;;;;;;;;;;;;;;;;;;7373719;19;1734;-70
2022/11/29 10:45:20;;;;;;;;;;;;;;;;;;7373120;19;1633;-70
2022/11/29 10:47:48;;;;;;;;;;;;;;;;;;7370297;19;813;-70
2022/11/29 10:50:16;;;;;;;;;;;;;;;;;;7371796;19;807;-70
2022/11/29 10:52:44;;;;;;;;;;;;;;;;;;7371420;19;1891;-69
2022/11/29 10:55:12;;;;;;;;;;;;;;;;;;7368223;19;1349;-69
2022/11/29 10:57:40;;;;;;;;;;;;;;;;;;7365942;19;1841;-69
2022/11/29 11:00:09;;;;;;;;;;;;;;;;;;7369427;19;832;-68
2022/11/29 11:02:37;;;;;;;;;;;;;;;;;;7371847;19;1878;-68
2022/11/29 11:05:05;;;;;;;;;;;;;;;;;;7366698;19;1356;-67
2022/11/29 11:07:34;;;;;;;;;;;;;;;;;;7368674;19;795;-68
2022/11/29 11:10:03;;;;;;;;;;;;;;;;;;7368244;19;822;-67
2022/11/29 11:12:31;;;;;;;;;;;;;;;;;;7371492;19;1885;-69
2022/11/29 11:14:59;;;;;;;;;;;;;;;;;;7365537;19;1342;-69
2022/11/29 11:17:29;;;;;;;;;;;;;;;;;;7365107;19;1826;-69
2022/11/29 11:19:59;;;;;;;;;;;;;;;;;;7371050;19;1893;-69
2022/11/29 11:22:27;;;;;;;;;;;;;;;;;;7370751;19;1887;-69
2022/11/29 11:24:55;;;;;;;;;;;;;;;;;;7365881;19;1318;-69
2022/11/29 11:27:24;;;;;;;;;;;;;;;;;;7367062;19;827;-70
2022/11/29 11:29:52;;;;;;;;;;;;;;;;;;7367634;19;1340;-69
2022/11/29 11:32:20;;;;;;;;;;;;;;;;;;7370467;19;1895;-68
2022/11/29 11:34:48;;;;;;;;;;;;;;;;;;7366301;19;1283;-68
2022/11/29 11:37:16;;;;;;;;;;;;;;;;;;7365271;19;2227;-69
2022/11/29 11:39:44;;;;;;;;;;;;;;;;;;7366893;19;832;-67
2022/11/29 11:44:53;;;;;;;;;;;;;;;;;;7365548;19;1294;-69
2022/11/29 11:47:23;;;;;;;;;;;;;;;;;;7368419;19;890;-70
2022/11/29 11:49:51;;;;;;;;;;;;;;;;;;7367224;19;871;-69
2022/11/29 11:52:19;;;;;;;;;;;;;;;;;;7369422;19;1845;-69
2022/11/29 11:54:47;;;;;;;;;;;;;;;;;;7364351;19;1310;-68
2022/11/29 11:57:15;;;;;;;;;;;;;;;;;;7367069;19;2219;-68
2022/11/29 11:59:43;;;;;;;;;;;;;;;;;;7366054;19;871;-69
2022/11/29 12:02:12;;;;;;;;;;;;;;;;;;7369153;19;1828;-69
2022/11/29 12:04:40;;;;;;;;;;;;;;;;;;7364266;19;1243;-68
2022/11/29 12:07:08;;;;;;;;;;;;;;;;;;7367071;19;808;-70
2022/11/29 12:09:36;;;;;;;;;;;;;;;;;;7365533;19;992;-68
2022/11/29 12:12:04;;;;;;;;;;;;;;;;;;7368308;19;1727;-67
2022/11/29 12:14:32;;;;;;;;;;;;;;;;;;7366295;19;1769;-66
2022/11/29 12:17:01;;;;;;;;;;;;;;;;;;7367191;19;2120;-67
2022/11/29 12:19:29;;;;;;;;;;;;;;;;;;7365916;19;835;-69
2022/11/29 12:21:57;;;;;;;;;;;;;;;;;;7367843;19;1831;-69
2022/11/29 12:24:25;;;;;;;;;;;;;;;;;;7365725;19;1854;-68
2022/11/29 12:26:53;;;;;;;;;;;;;;;;;;7366829;19;1811;-65
2022/11/29 12:29:21;;;;;;;;;;;;;;;;;;7366377;19;2145;-67
2022/11/29 12:31:53;;;;;;;;;;;;;;;;;;7367046;19;1872;-68
2022/11/29 12:34:21;;;;;;;;;;;;;;;;;;7367014;19;1884;-70
2022/11/29 12:36:50;;;;;;;;;;;;;;;;;;7367427;19;2232;-69
2022/11/29 12:39:18;;;;;;;;;;;;;;;;;;7366450;19;2159;-67
2022/11/29 12:41:46;;;;;;;;;;;;;;;;;;7367525;19;2096;-67
2022/11/29 12:44:14;;;;;;;;;;;;;;;;;;7364437;19;1357;-67
2022/11/29 12:46:42;;;;;;;;;;;;;;;;;;7365481;19;790;-66
2022/11/29 12:49:10;;;;;;;;;;;;;;;;;;7365482;19;770;-68
2022/11/29 12:51:39;;;;;;;;;;;;;;;;;;7366966;19;1834;-68
2022/11/29 12:54:07;;;;;;;;;;;;;;;;;;7368264;19;1851;-68
2022/11/29 12:56:35;;;;;;;;;;;;;;;;;;7364053;19;1834;-68
2022/11/29 12:59:03;;;;;;;;;;;;;;;;;;7364202;19;755;-68
2022/11/29 13:01:31;;;;;;;;;;;;;;;;;;7365717;19;1661;-68
2022/11/29 13:03:59;;;;;;;;;;;;;;;;;;7362854;19;1357;-68
2022/11/29 13:06:29;;;;;;;;;;;;;;;;;;7363684;19;849;-67
2022/11/29 13:08:57;;;;;;;;;;;;;;;;;;7364195;19;850;-68
2022/11/29 13:11:25;;;;;;;;;;;;;;;;;;7365577;19;1565;-67
2022/11/29 13:13:53;;;;;;;;;;;;;;;;;;7364886;19;1236;-68
2022/11/29 13:16:21;;;;;;;;;;;;;;;;;;7366193;19;1818;-70
2022/11/29 13:18:50;;;;;;;;;;;;;;;;;;7369242;19;837;-68
2022/11/29 13:21:18;;;;;;;;;;;;;;;;;;7370276;19;1838;-67
2022/11/29 13:23:46;;;;;;;;;;;;;;;;;;7373792;19;1885;-69
2022/11/29 13:26:14;;;;;;;;;;;;;;;;;;7373404;19;1877;-70
2022/11/29 13:28:42;;;;;;;;;;;;;;;;;;7372996;19;1890;-66
2022/11/29 13:31:11;;;;;;;;;;;;;;;;;;7371537;19;883;-66
2022/11/29 13:33:39;;;;;;;;;;;;;;;;;;7370677;19;1295;-69
2022/11/29 13:36:07;;;;;;;;;;;;;;;;;;7373433;19;1685;-67
2022/11/29 13:38:35;;;;;;;;;;;;;;;;;;7369777;19;1855;-69
2022/11/29 13:41:03;;;;;;;;;;;;;;;;;;7375595;19;1922;-68
2022/11/29 13:43:31;;;;;;;;;;;;;;;;;;7369593;19;1246;-68
2022/11/29 13:46:00;;;;;;;;;;;;;;;;;;7368119;19;780;-70
2022/11/29 13:48:28;;;;;;;;;;;;;;;;;;7369803;19;695;-70
2022/11/29 13:50:56;;;;;;;;;;;;;;;;;;7375586;19;1637;-68
2022/11/29 13:53:24;;;;;;;;;;;;;;;;;;7370917;19;1339;-67
2022/11/29 13:55:58;;;;;;;;;;;;;;;;;;7371258;19;810;-68
2022/11/29 13:58:27;;;;;;;;;;;;;;;;;;7368603;19;1845;-67
2022/11/29 14:00:55;;;;;;;;;;;;;;;;;;7373362;19;1638;-68
2022/11/29 14:03:23;;;;;;;;;;;;;;;;;;7368418;19;857;-68
2022/11/29 14:05:51;;;;;;;;;;;;;;;;;;7368675;19;748;-68
2022/11/29 14:08:19;;;;;;;;;;;;;;;;;;7367192;19;883;-70
2022/11/29 14:10:47;;;;;;;;;;;;;;;;;;7369674;19;1917;-68
2022/11/29 14:13:16;;;;;;;;;;;;;;;;;;7370094;19;846;-68
2022/11/29 14:15:44;;;;;;;;;;;;;;;;;;7368112;19;1275;-67
2022/11/29 14:18:12;;;;;;;;;;;;;;;;;;7367242;19;1859;-68
2022/11/29 14:20:42;;;;;;;;;;;;;;;;;;7372824;19;1839;-67
2022/11/29 14:23:10;;;;;;;;;;;;;;;;;;7369622;19;711;-67
2022/11/29 14:25:39;;;;;;;;;;;;;;;;;;7366358;19;1279;-69
2022/11/29 14:28:07;;;;;;;;;;;;;;;;;;7367475;19;827;-70
2022/11/29 14:30:35;;;;;;;;;;;;;;;;;;7373315;19;1797;-67
2022/11/29 14:33:03;;;;;;;;;;;;;;;;;;7370474;19;812;-66
2022/11/29 14:35:31;;;;;;;;;;;;;;;;;;7366418;19;1283;-68
2022/11/29 14:38:00;;;;;;;;;;;;;;;;;;7367885;19;1838;-67
2022/11/29 14:40:28;;;;;;;;;;;;;;;;;;7370965;19;1885;-66
2022/11/29 14:42:56;;;;;;;;;;;;;;;;;;7372350;19;1642;-69
2022/11/29 14:45:24;;;;;;;;;;;;;;;;;;7367000;19;1291;-66
2022/11/29 14:47:52;;;;;;;;;;;;;;;;;;7368633;19;873;-67
2022/11/29 14:50:20;;;;;;;;;;;;;;;;;;7372259;19;1881;-70
2022/11/29 14:52:48;;;;;;;;;;;;;;;;;;7368395;19;811;-68
2022/11/29 14:55:17;;;;;;;;;;;;;;;;;;7368120;19;1321;-68
2022/11/29 14:57:45;;;;;;;;;;;;;;;;;;7366624;19;1853;-68
2022/11/29 15:00:13;;;;;;;;;;;;;;;;;;7371143;19;1824;-68
2022/11/29 15:02:41;;;;;;;;;;;;;;;;;;7367395;19;891;-67
2022/11/29 15:05:09;;;;;;;;;;;;;;;;;;7365883;19;1275;-67
2022/11/29 15:07:37;;;;;;;;;;;;;;;;;;7367368;19;842;-67
2022/11/29 15:10:06;;;;;;;;;;;;;;;;;;7370119;19;1833;-67
2022/11/29 15:12:34;;;;;;;;;;;;;;;;;;7368410;19;850;-68
2022/11/29 15:15:02;;;;;;;;;;;;;;;;;;7367010;19;1885;-67
2022/11/29 15:17:30;;;;;;;;;;;;;;;;;;7366924;19;1853;-67
2022/11/29 15:19:58;;;;;;;;;;;;;;;;;;7368618;19;1748;-67
2022/11/29 15:22:27;;;;;;;;;;;;;;;;;;7367397;19;870;-67
2022/11/29 15:24:55;;;;;;;;;;;;;;;;;;7365801;19;1270;-67
2022/11/29 15:27:23;;;;;;;;;;;;;;;;;;7366893;19;797;-67
2022/11/29 15:29:52;;;;;;;;;;;;;;;;;;7368859;19;1844;-67
2022/11/29 15:32:20;;;;;;;;;;;;;;;;;;7370145;19;1870;-67
2022/11/29 15:34:49;;;;;;;;;;;;;;;;;;7366597;19;1349;-67
2022/11/29 15:37:17;;;;;;;;;;;;;;;;;;7367655;19;1849;-69
2022/11/29 15:39:45;;;;;;;;;;;;;;;;;;7366066;19;1881;-66
2022/11/29 15:42:14;;;;;;;;;;;;;;;;;;7368787;19;737;-68
2022/11/29 15:44:42;;;;;;;;;;;;;;;;;;7366505;19;1271;-67
2022/11/29 15:47:10;;;;;;;;;;;;;;;;;;7368393;19;827;-67
2022/11/29 15:49:38;;;;;;;;;;;;;;;;;;7367784;19;1856;-68
2022/11/29 15:52:09;;;;;;;;;;;;;;;;;;7372907;19;1983;-68
2022/11/29 15:54:37;;;;;;;;;;;;;;;;;;7370203;19;1819;-67
2022/11/29 15:57:05;;;;;;;;;;;;;;;;;;7367976;19;1842;-66
2022/11/29 15:59:34;;;;;;;;;;;;;;;;;;7367448;19;796;-67
2022/11/29 16:02:02;;;;;;;;;;;;;;;;;;7367575;19;798;-67
2022/11/29 16:04:30;;;;;;;;;;;;;;;;;;7365501;19;1299;-66
2022/11/29 16:06:58;;;;;;;;;;;;;;;;;;7366910;19;849;-67
2022/11/29 16:09:26;;;;;;;;;;;;;;;;;;7366051;19;828;-66
2022/11/29 16:11:54;;;;;;;;;;;;;;;;;;7367312;19;837;-66
2022/11/29 16:14:23;;;;;;;;;;;;;;;;;;7365526;19;1273;-67
2022/11/29 16:16:51;;;;;;;;;;;;;;;;;;7367487;19;815;-67
2022/11/29 16:19:19;;;;;;;;;;;;;;;;;;7367602;19;1864;-67
2022/11/29 16:21:47;;;;;;;;;;;;;;;;;;7364893;19;862;-68
2022/11/29 16:24:15;;;;;;;;;;;;;;;;;;7363963;19;1326;-68
2022/11/29 16:26:43;;;;;;;;;;;;;;;;;;7366700;19;831;-69
2022/11/29 16:29:11;;;;;;;;;;;;;;;;;;7366121;19;2153;-70
2022/11/29 16:31:40;;;;;;;;;;;;;;;;;;7365657;19;846;-69
2022/11/29 16:34:08;;;;;;;;;;;;;;;;;;7365401;19;1354;-69
2022/11/29 16:36:36;;;;;;;;;;;;;;;;;;7366446;19;840;-69
2022/11/29 16:39:04;;;;;;;;;;;;;;;;;;7363494;19;1848;-70
2022/11/29 16:41:32;;;;;;;;;;;;;;;;;;7366048;19;816;-68
2022/11/29 16:44:02;;;;;;;;;;;;;;;;;;7364676;19;1275;-69
2022/11/29 16:46:30;;;;;;;;;;;;;;;;;;7371826;19;1887;-68
2022/11/29 16:48:59;;;;;;;;;;;;;;;;;;7370487;19;855;-67
2022/11/29 16:51:27;;;;;;;;;;;;;;;;;;7374079;19;899;-67
2022/11/29 16:53:56;;;;;;;;;;;;;;;;;;7379602;19;1766;-67
2022/11/29 16:56:24;;;;;;;;;;;;;;;;;;7378815;19;875;-68
2022/11/29 16:58:52;;;;;;;;;;;;;;;;;;7374814;19;1850;-67
2022/11/29 17:01:20;;;;;;;;;;;;;;;;;;7374664;19;776;-67
2022/11/29 17:03:48;;;;;;;;;;;;;;;;;;7374483;19;1346;-67
2022/11/29 17:06:17;;;;;;;;;;;;;;;;;;7373950;19;823;-67
2022/11/29 17:08:45;;;;;;;;;;;;;;;;;;7372464;19;767;-68
2022/11/29 17:11:13;;;;;;;;;;;;;;;;;;7372769;19;838;-68
2022/11/29 17:13:41;;;;;;;;;;;;;;;;;;7372145;19;1283;-67
2022/11/29 17:16:11;;;;;;;;;;;;;;;;;;7374533;19;1833;-67
2022/11/29 17:18:40;;;;;;;;;;;;;;;;;;7372919;19;1957;-68
2022/11/29 17:21:09;;;;;;;;;;;;;;;;;;7370529;19;882;-69
2022/11/29 17:23:37;;;;;;;;;;;;;;;;;;7370342;19;1273;-69
2022/11/29 17:26:06;;;;;;;;;;;;;;;;;;7371735;19;1879;-69